Decoded Metar for KMWL (MINERAL WELLS in TX, USA) (IATA:MWL) | Meteo·Mobile Aviation Weather
aviador You're here:

KMWL Decoded Metar

MINERAL WELLS in TX, USA
Report Time2019-09-21 09:53:00
UTC Time2019-09-21 10:05:48
Flight Rules mvfr MVFR
Wind150° at 09 kt
W.Decomp.*RWY 13: 8.7 kt HW 2.2 kt RCW
RWY 17: 8.1 kt HW 3.9 kt LCW
Visibility9999 m
Phenomena:N/A
Clouds:Broken 022 Hf
Expected CloudBase > 1,200 ft AGL from Temp-Dew spread
Ceiling2,200 ft
Temp25°C (ISA +12)
Dew Point22°C (83% RH)
QNH1016 hPa
Density Alt2,556 ft
Elevation932 ft
Report Wrong Elevation
Raw Report
KMWL 210953Z AUTO 15009KT 10SM BKN022 25/22 A2999 RMK AO2 SLP141
T02500217=

Extra information for KMWL:More info

Metar Taf Metar & Taf Last 4 Metars F.Rules Stats Wind Profile Meteogram Temp Stats Airport Information Weather charts Add Link Nearby VenuesMetar ALERT Operation Metar Decoded Social comments

AIRNAV info for KMWL